sensor_id;sensor_type;location;lat;lon;timestamp;pressure;altitude;pressure_sealevel;temperature;humidity
14242;BME280;7205;50.864;12.766;2023-05-20T00:01:50;98242.81;;;13.59;73.01
14242;BME280;7205;50.864;12.766;2023-05-20T00:04:17;98230.56;;;13.58;73.78
14242;BME280;7205;50.864;12.766;2023-05-20T00:06:44;98234.00;;;13.58;73.61
14242;BME280;7205;50.864;12.766;2023-05-20T00:09:10;98228.69;;;13.58;73.65
14242;BME280;7205;50.864;12.766;2023-05-20T00:11:39;98230.38;;;13.59;74.04
14242;BME280;7205;50.864;12.766;2023-05-20T00:14:05;98229.53;;;13.59;73.99
14242;BME280;7205;50.864;12.766;2023-05-20T00:16:32;98234.84;;;13.59;73.85
14242;BME280;7205;50.864;12.766;2023-05-20T00:18:59;98234.00;;;13.58;73.94
14242;BME280;7205;50.864;12.766;2023-05-20T00:21:26;98233.34;;;13.56;73.96
14242;BME280;7205;50.864;12.766;2023-05-20T00:23:54;98229.25;;;13.54;74.17
14242;BME280;7205;50.864;12.766;2023-05-20T00:26:21;98224.78;;;13.54;74.26
14242;BME280;7205;50.864;12.766;2023-05-20T00:28:54;98222.31;;;13.53;74.37
14242;BME280;7205;50.864;12.766;2023-05-20T00:31:20;98224.97;;;13.53;74.42
14242;BME280;7205;50.864;12.766;2023-05-20T00:33:47;98226.78;;;13.52;74.21
14242;BME280;7205;50.864;12.766;2023-05-20T00:36:14;98220.63;;;13.52;74.65
14242;BME280;7205;50.864;12.766;2023-05-20T00:38:41;98230.41;;;13.51;74.79
14242;BME280;7205;50.864;12.766;2023-05-20T00:41:08;98219.19;;;13.49;74.93
14242;BME280;7205;50.864;12.766;2023-05-20T00:43:34;98215.69;;;13.49;74.91
14242;BME280;7205;50.864;12.766;2023-05-20T00:46:03;98216.84;;;13.46;75.00
14242;BME280;7205;50.864;12.766;2023-05-20T00:48:37;98207.25;;;13.45;75.18
14242;BME280;7205;50.864;12.766;2023-05-20T00:51:05;98211.91;;;13.43;75.45
14242;BME280;7205;50.864;12.766;2023-05-20T00:53:33;98224.38;;;13.43;75.49
14242;BME280;7205;50.864;12.766;2023-05-20T00:56:01;98215.59;;;13.42;75.44
14242;BME280;7205;50.864;12.766;2023-05-20T00:58:28;98216.75;;;13.40;75.73
14242;BME280;7205;50.864;12.766;2023-05-20T01:00:55;98209.81;;;13.39;75.58
14242;BME280;7205;50.864;12.766;2023-05-20T01:03:23;98215.31;;;13.37;75.77
14242;BME280;7205;50.864;12.766;2023-05-20T01:05:50;98218.13;;;13.36;75.95
14242;BME280;7205;50.864;12.766;2023-05-20T01:08:17;98219.13;;;13.35;76.15
14242;BME280;7205;50.864;12.766;2023-05-20T01:10:46;98221.78;;;13.35;76.36
14242;BME280;7205;50.864;12.766;2023-05-20T01:13:16;98219.28;;;13.33;76.30
14242;BME280;7205;50.864;12.766;2023-05-20T01:15:47;98224.59;;;13.33;76.50
14242;BME280;7205;50.864;12.766;2023-05-20T01:18:15;98228.28;;;13.32;76.56
14242;BME280;7205;50.864;12.766;2023-05-20T01:20:45;98229.09;;;13.33;76.65
14242;BME280;7205;50.864;12.766;2023-05-20T01:23:16;98227.63;;;13.30;76.40
14242;BME280;7205;50.864;12.766;2023-05-20T01:25:43;98214.72;;;13.27;76.76
14242;BME280;7205;50.864;12.766;2023-05-20T01:28:12;98213.41;;;13.23;76.76
14242;BME280;7205;50.864;12.766;2023-05-20T01:30:48;98212.94;;;13.20;76.68
14242;BME280;7205;50.864;12.766;2023-05-20T01:33:19;98207.16;;;13.16;76.84
14242;BME280;7205;50.864;12.766;2023-05-20T01:35:46;98193.59;;;13.11;76.90
14242;BME280;7205;50.864;12.766;2023-05-20T01:38:17;98197.63;;;13.07;77.22
14242;BME280;7205;50.864;12.766;2023-05-20T01:40:45;98210.06;;;13.07;77.46
14242;BME280;7205;50.864;12.766;2023-05-20T01:43:13;98212.88;;;13.05;77.66
14242;BME280;7205;50.864;12.766;2023-05-20T01:45:40;98224.31;;;13.06;77.84
14242;BME280;7205;50.864;12.766;2023-05-20T01:48:09;98218.00;;;13.07;77.94
14242;BME280;7205;50.864;12.766;2023-05-20T01:50:37;98212.72;;;13.07;78.17
14242;BME280;7205;50.864;12.766;2023-05-20T01:53:04;98217.03;;;13.08;78.34
14242;BME280;7205;50.864;12.766;2023-05-20T01:55:34;98212.72;;;13.07;78.20
14242;BME280;7205;50.864;12.766;2023-05-20T01:58:01;98216.56;;;13.04;78.20
14242;BME280;7205;50.864;12.766;2023-05-20T02:00:28;98214.22;;;13.01;78.25
14242;BME280;7205;50.864;12.766;2023-05-20T02:02:55;98204.59;;;13.00;78.44
14242;BME280;7205;50.864;12.766;2023-05-20T02:05:21;98202.97;;;12.99;78.38
14242;BME280;7205;50.864;12.766;2023-05-20T02:07:48;98196.19;;;12.97;78.71
14242;BME280;7205;50.864;12.766;2023-05-20T02:10:15;98198.16;;;12.95;78.49
14242;BME280;7205;50.864;12.766;2023-05-20T02:12:43;98193.41;;;12.90;78.41
14242;BME280;7205;50.864;12.766;2023-05-20T02:15:12;98200.03;;;12.86;78.65
14242;BME280;7205;50.864;12.766;2023-05-20T02:17:40;98197.09;;;12.81;78.96
14242;BME280;7205;50.864;12.766;2023-05-20T02:20:08;98195.16;;;12.75;78.74
14242;BME280;7205;50.864;12.766;2023-05-20T02:22:36;98190.72;;;12.68;78.86
14242;BME280;7205;50.864;12.766;2023-05-20T02:25:03;98186.47;;;12.58;79.09
14242;BME280;7205;50.864;12.766;2023-05-20T02:27:30;98192.81;;;12.49;78.89
14242;BME280;7205;50.864;12.766;2023-05-20T02:29:59;98198.34;;;12.40;79.13
14242;BME280;7205;50.864;12.766;2023-05-20T02:32:26;98193.25;;;12.30;79.60
14242;BME280;7205;50.864;12.766;2023-05-20T02:34:54;98189.81;;;12.22;79.86
14242;BME280;7205;50.864;12.766;2023-05-20T02:37:20;98191.66;;;12.13;80.38
14242;BME280;7205;50.864;12.766;2023-05-20T02:39:47;98190.03;;;12.04;80.22
14242;BME280;7205;50.864;12.766;2023-05-20T02:42:14;98193.53;;;11.97;80.81
14242;BME280;7205;50.864;12.766;2023-05-20T02:44:41;98192.56;;;11.90;81.10
14242;BME280;7205;50.864;12.766;2023-05-20T02:47:09;98197.03;;;11.81;81.87
14242;BME280;7205;50.864;12.766;2023-05-20T02:49:36;98194.25;;;11.75;82.20
14242;BME280;7205;50.864;12.766;2023-05-20T02:52:03;98197.41;;;11.70;82.66
14242;BME280;7205;50.864;12.766;2023-05-20T02:54:30;98197.25;;;11.64;82.77
14242;BME280;7205;50.864;12.766;2023-05-20T02:56:57;98202.84;;;11.61;83.39
14242;BME280;7205;50.864;12.766;2023-05-20T02:59:24;98197.22;;;11.56;83.89
14242;BME280;7205;50.864;12.766;2023-05-20T03:01:51;98195.91;;;11.52;83.63
14242;BME280;7205;50.864;12.766;2023-05-20T03:04:19;98202.34;;;11.49;84.36
14242;BME280;7205;50.864;12.766;2023-05-20T03:06:46;98200.88;;;11.47;85.22
14242;BME280;7205;50.864;12.766;2023-05-20T03:09:14;98199.22;;;11.46;85.33
14242;BME280;7205;50.864;12.766;2023-05-20T03:11:41;98193.94;;;11.46;86.04
14242;BME280;7205;50.864;12.766;2023-05-20T03:14:08;98195.59;;;11.47;85.81
14242;BME280;7205;50.864;12.766;2023-05-20T03:16:35;98190.81;;;11.50;86.56
14242;BME280;7205;50.864;12.766;2023-05-20T03:19:02;98188.66;;;11.54;87.35
14242;BME280;7205;50.864;12.766;2023-05-20T03:21:30;98193.59;;;11.57;87.63
14242;BME280;7205;50.864;12.766;2023-05-20T03:23:58;98191.63;;;11.59;87.69
14242;BME280;7205;50.864;12.766;2023-05-20T03:26:25;98193.25;;;11.60;87.53
14242;BME280;7205;50.864;12.766;2023-05-20T03:28:52;98184.31;;;11.61;87.82
14242;BME280;7205;50.864;12.766;2023-05-20T03:31:19;98187.63;;;11.63;88.36
14242;BME280;7205;50.864;12.766;2023-05-20T03:33:46;98192.59;;;11.66;88.06
14242;BME280;7205;50.864;12.766;2023-05-20T03:36:13;98187.16;;;11.67;88.63
14242;BME280;7205;50.864;12.766;2023-05-20T03:38:41;98186.50;;;11.73;88.42
14242;BME280;7205;50.864;12.766;2023-05-20T03:41:08;98194.91;;;11.77;88.80
14242;BME280;7205;50.864;12.766;2023-05-20T03:43:35;98192.94;;;11.79;89.05
14242;BME280;7205;50.864;12.766;2023-05-20T03:46:01;98192.09;;;11.78;88.27
14242;BME280;7205;50.864;12.766;2023-05-20T03:48:28;98199.03;;;11.79;88.75
14242;BME280;7205;50.864;12.766;2023-05-20T03:50:55;98200.88;;;11.79;89.04
14242;BME280;7205;50.864;12.766;2023-05-20T03:53:22;98202.34;;;11.81;88.53
14242;BME280;7205;50.864;12.766;2023-05-20T03:55:50;98207.47;;;11.83;89.06
14242;BME280;7205;50.864;12.766;2023-05-20T03:58:17;98209.13;;;11.84;89.32
14242;BME280;7205;50.864;12.766;2023-05-20T04:00:46;98210.44;;;11.88;89.53
14242;BME280;7205;50.864;12.766;2023-05-20T04:03:13;98213.38;;;11.93;89.82
14242;BME280;7205;50.864;12.766;2023-05-20T04:05:40;98216.69;;;11.95;89.32
14242;BME280;7205;50.864;12.766;2023-05-20T04:08:15;98213.88;;;11.96;89.99
14242;BME280;7205;50.864;12.766;2023-05-20T04:10:43;98213.53;;;11.99;89.61
14242;BME280;7205;50.864;12.766;2023-05-20T04:13:12;98215.03;;;12.02;89.29
14242;BME280;7205;50.864;12.766;2023-05-20T04:15:40;98219.97;;;12.05;89.86
14242;BME280;7205;50.864;12.766;2023-05-20T04:18:08;98218.47;;;12.10;90.12
14242;BME280;7205;50.864;12.766;2023-05-20T04:20:34;98210.84;;;12.15;90.40
14242;BME280;7205;50.864;12.766;2023-05-20T04:23:01;98208.53;;;12.20;89.72
14242;BME280;7205;50.864;12.766;2023-05-20T04:25:29;98202.88;;;12.23;90.01
14242;BME280;7205;50.864;12.766;2023-05-20T04:27:58;98203.00;;;12.30;89.88
14242;BME280;7205;50.864;12.766;2023-05-20T04:30:27;98202.31;;;12.36;90.29
14242;BME280;7205;50.864;12.766;2023-05-20T04:32:54;98202.31;;;12.44;90.50
14242;BME280;7205;50.864;12.766;2023-05-20T04:35:21;98215.50;;;12.52;90.22
14242;BME280;7205;50.864;12.766;2023-05-20T04:37:51;98205.03;;;12.58;89.88
14242;BME280;7205;50.864;12.766;2023-05-20T04:40:20;98201.84;;;12.63;89.52
14242;BME280;7205;50.864;12.766;2023-05-20T04:42:47;98210.94;;;12.69;89.56
14242;BME280;7205;50.864;12.766;2023-05-20T04:45:14;98210.06;;;12.76;89.53
14242;BME280;7205;50.864;12.766;2023-05-20T04:47:42;98211.84;;;12.84;89.40
14242;BME280;7205;50.864;12.766;2023-05-20T04:50:10;98207.50;;;12.91;88.71
14242;BME280;7205;50.864;12.766;2023-05-20T04:52:40;98205.78;;;12.98;88.80
14242;BME280;7205;50.864;12.766;2023-05-20T04:55:08;98201.81;;;13.02;88.19
14242;BME280;7205;50.864;12.766;2023-05-20T04:57:36;98192.50;;;13.06;87.59
14242;BME280;7205;50.864;12.766;2023-05-20T05:00:06;98195.63;;;13.09;87.74
14242;BME280;7205;50.864;12.766;2023-05-20T05:02:35;98193.09;;;13.16;87.29
14242;BME280;7205;50.864;12.766;2023-05-20T05:05:04;98203.16;;;13.20;87.11
14242;BME280;7205;50.864;12.766;2023-05-20T05:07:31;98206.94;;;13.26;86.66
14242;BME280;7205;50.864;12.766;2023-05-20T05:09:58;98195.78;;;13.30;86.56
14242;BME280;7205;50.864;12.766;2023-05-20T05:12:28;98202.22;;;13.36;86.23
14242;BME280;7205;50.864;12.766;2023-05-20T05:14:57;98199.50;;;13.44;86.18
14242;BME280;7205;50.864;12.766;2023-05-20T05:17:24;98211.69;;;13.53;86.21
14242;BME280;7205;50.864;12.766;2023-05-20T05:19:53;98195.03;;;13.59;85.71
14242;BME280;7205;50.864;12.766;2023-05-20T05:22:21;98188.38;;;13.63;84.95
14242;BME280;7205;50.864;12.766;2023-05-20T05:24:50;98181.69;;;13.67;84.42
14242;BME280;7205;50.864;12.766;2023-05-20T05:27:17;98178.66;;;13.70;84.53
14242;BME280;7205;50.864;12.766;2023-05-20T05:29:44;98182.72;;;13.80;84.26
14242;BME280;7205;50.864;12.766;2023-05-20T05:32:11;98180.16;;;13.87;83.96
14242;BME280;7205;50.864;12.766;2023-05-20T05:34:38;98174.75;;;13.95;83.70
14242;BME280;7205;50.864;12.766;2023-05-20T05:37:05;98174.84;;;14.02;83.21
14242;BME280;7205;50.864;12.766;2023-05-20T05:39:33;98174.94;;;14.08;82.74
14242;BME280;7205;50.864;12.766;2023-05-20T05:42:02;98179.50;;;14.14;82.54
14242;BME280;7205;50.864;12.766;2023-05-20T05:44:29;98184.44;;;14.17;81.75
14242;BME280;7205;50.864;12.766;2023-05-20T05:46:56;98181.97;;;14.16;81.18
14242;BME280;7205;50.864;12.766;2023-05-20T05:49:23;98186.00;;;14.12;80.72
14242;BME280;7205;50.864;12.766;2023-05-20T05:51:50;98180.25;;;14.08;80.60
14242;BME280;7205;50.864;12.766;2023-05-20T05:54:17;98177.75;;;14.07;81.09
14242;BME280;7205;50.864;12.766;2023-05-20T05:56:47;98181.06;;;14.09;81.42
14242;BME280;7205;50.864;12.766;2023-05-20T05:59:14;98178.22;;;14.10;81.34
14242;BME280;7205;50.864;12.766;2023-05-20T06:01:42;98176.66;;;14.16;81.64
14242;BME280;7205;50.864;12.766;2023-05-20T06:04:09;98176.09;;;14.20;81.16
14242;BME280;7205;50.864;12.766;2023-05-20T06:06:36;98174.59;;;14.26;81.03
14242;BME280;7205;50.864;12.766;2023-05-20T06:09:03;98172.84;;;14.33;81.05
14242;BME280;7205;50.864;12.766;2023-05-20T06:11:32;98175.56;;;14.39;81.15
14242;BME280;7205;50.864;12.766;2023-05-20T06:14:00;98184.47;;;14.46;80.80
14242;BME280;7205;50.864;12.766;2023-05-20T06:16:27;98187.66;;;14.56;80.80
14242;BME280;7205;50.864;12.766;2023-05-20T06:18:54;98181.66;;;14.69;80.74
14242;BME280;7205;50.864;12.766;2023-05-20T06:21:22;98180.34;;;14.79;80.28
14242;BME280;7205;50.864;12.766;2023-05-20T06:23:49;98173.72;;;14.90;80.20
14242;BME280;7205;50.864;12.766;2023-05-20T06:26:17;98176.03;;;14.99;79.13
14242;BME280;7205;50.864;12.766;2023-05-20T06:28:43;98173.06;;;15.09;78.67
14242;BME280;7205;50.864;12.766;2023-05-20T06:31:11;98176.41;;;15.18;77.99
14242;BME280;7205;50.864;12.766;2023-05-20T06:33:39;98186.94;;;15.26;77.46
14242;BME280;7205;50.864;12.766;2023-05-20T06:36:09;98189.84;;;15.31;76.62
14242;BME280;7205;50.864;12.766;2023-05-20T06:38:36;98185.97;;;15.33;75.80
14242;BME280;7205;50.864;12.766;2023-05-20T06:41:04;98187.44;;;15.36;75.57
14242;BME280;7205;50.864;12.766;2023-05-20T06:43:31;98182.94;;;15.36;75.34
14242;BME280;7205;50.864;12.766;2023-05-20T06:46:03;98182.94;;;15.36;74.00
14242;BME280;7205;50.864;12.766;2023-05-20T06:48:54;98179.59;;;15.28;73.79
14242;BME280;7205;50.864;12.766;2023-05-20T06:51:21;98184.84;;;15.21;73.72
14242;BME280;7205;50.864;12.766;2023-05-20T06:53:49;98183.41;;;15.19;73.62
14242;BME280;7205;50.864;12.766;2023-05-20T06:56:16;98179.91;;;15.18;73.81
14242;BME280;7205;50.864;12.766;2023-05-20T06:58:43;98178.88;;;15.19;74.60
14242;BME280;7205;50.864;12.766;2023-05-20T07:01:10;98174.66;;;15.25;74.47
14242;BME280;7205;50.864;12.766;2023-05-20T07:03:38;98175.69;;;15.24;74.14
14242;BME280;7205;50.864;12.766;2023-05-20T07:06:09;98165.84;;;15.24;74.53
14242;BME280;7205;50.864;12.766;2023-05-20T07:08:36;98158.25;;;15.21;74.32
14242;BME280;7205;50.864;12.766;2023-05-20T07:11:03;98161.09;;;15.20;74.37
14242;BME280;7205;50.864;12.766;2023-05-20T07:13:30;98159.47;;;15.19;74.43
14242;BME280;7205;50.864;12.766;2023-05-20T07:15:57;98148.81;;;15.19;74.79
14242;BME280;7205;50.864;12.766;2023-05-20T07:18:25;98154.56;;;15.22;74.86
14242;BME280;7205;50.864;12.766;2023-05-20T07:20:54;98152.34;;;15.26;74.88
14242;BME280;7205;50.864;12.766;2023-05-20T07:23:43;98144.59;;;15.31;74.86
14242;BME280;7205;50.864;12.766;2023-05-20T07:26:10;98146.50;;;15.37;75.05
14242;BME280;7205;50.864;12.766;2023-05-20T07:28:37;98150.44;;;15.41;74.92
14242;BME280;7205;50.864;12.766;2023-05-20T07:31:04;98146.63;;;15.50;75.41
14242;BME280;7205;50.864;12.766;2023-05-20T07:33:34;98150.81;;;15.59;75.23
14242;BME280;7205;50.864;12.766;2023-05-20T07:36:05;98150.91;;;15.72;75.68
14242;BME280;7205;50.864;12.766;2023-05-20T07:38:31;98154.72;;;15.90;75.65
14242;BME280;7205;50.864;12.766;2023-05-20T07:41:03;98150.72;;;16.07;75.03
14242;BME280;7205;50.864;12.766;2023-05-20T07:43:32;98146.88;;;16.23;74.57
14242;BME280;7205;50.864;12.766;2023-05-20T07:46:00;98141.19;;;16.33;73.45
14242;BME280;7205;50.864;12.766;2023-05-20T07:48:28;98144.31;;;16.43;72.66
14242;BME280;7205;50.864;12.766;2023-05-20T07:50:54;98141.28;;;16.52;72.53
14242;BME280;7205;50.864;12.766;2023-05-20T07:53:24;98147.69;;;16.64;72.13
14242;BME280;7205;50.864;12.766;2023-05-20T07:55:51;98146.47;;;16.73;70.93
14242;BME280;7205;50.864;12.766;2023-05-20T07:58:20;98136.63;;;16.74;70.50
14242;BME280;7205;50.864;12.766;2023-05-20T08:00:49;98129.88;;;16.78;70.35
14242;BME280;7205;50.864;12.766;2023-05-20T08:03:16;98122.47;;;16.80;70.45
14242;BME280;7205;50.864;12.766;2023-05-20T08:05:59;98128.44;;;16.88;70.38
14242;BME280;7205;50.864;12.766;2023-05-20T08:08:26;98128.47;;;17.01;69.73
14242;BME280;7205;50.864;12.766;2023-05-20T08:11:09;98125.41;;;17.17;69.00
14242;BME280;7205;50.864;12.766;2023-05-20T08:13:39;98117.19;;;17.25;68.21
14242;BME280;7205;50.864;12.766;2023-05-20T08:16:08;98125.00;;;17.27;67.13
14242;BME280;7205;50.864;12.766;2023-05-20T08:18:40;98119.66;;;17.20;66.96
14242;BME280;7205;50.864;12.766;2023-05-20T08:21:10;98111.25;;;17.17;67.32
14242;BME280;7205;50.864;12.766;2023-05-20T08:23:54;98101.19;;;17.12;67.41
14242;BME280;7205;50.864;12.766;2023-05-20T08:26:40;98089.69;;;17.18;68.67
14242;BME280;7205;50.864;12.766;2023-05-20T08:29:50;98084.34;;;17.44;69.47
14242;BME280;7205;50.864;12.766;2023-05-20T08:32:21;98087.84;;;17.58;67.78
14242;BME280;7205;50.864;12.766;2023-05-20T08:34:57;98082.28;;;17.66;66.34
14242;BME280;7205;50.864;12.766;2023-05-20T08:37:55;98084.13;;;17.66;65.48
14242;BME280;7205;50.864;12.766;2023-05-20T08:41:00;98081.66;;;17.58;65.18
14242;BME280;7205;50.864;12.766;2023-05-20T08:43:31;98082.88;;;17.55;65.04
14242;BME280;7205;50.864;12.766;2023-05-20T08:46:07;98086.63;;;17.47;64.77
14242;BME280;7205;50.864;12.766;2023-05-20T08:48:38;98069.97;;;17.39;64.67
14242;BME280;7205;50.864;12.766;2023-05-20T08:51:19;98069.13;;;17.32;65.22
14242;BME280;7205;50.864;12.766;2023-05-20T08:53:58;98090.50;;;17.32;65.93
14242;BME280;7205;50.864;12.766;2023-05-20T08:56:53;98077.78;;;17.27;66.19
14242;BME280;7205;50.864;12.766;2023-05-20T09:03:04;98086.00;;;17.19;65.92
14242;BME280;7205;50.864;12.766;2023-05-20T09:05:13;98077.78;;;17.14;66.46
14242;BME280;7205;50.864;12.766;2023-05-20T09:08:07;98084.97;;;17.14;66.79
14242;BME280;7205;50.864;12.766;2023-05-20T09:11:13;98090.91;;;17.16;67.45
14242;BME280;7205;50.864;12.766;2023-05-20T09:13:41;98071.41;;;17.15;67.32
14242;BME280;7205;50.864;12.766;2023-05-20T09:16:32;98080.88;;;17.18;67.49
14242;BME280;7205;50.864;12.766;2023-05-20T09:19:05;98070.19;;;17.18;66.85
14242;BME280;7205;50.864;12.766;2023-05-20T09:21:34;98068.94;;;17.20;66.94
14242;BME280;7205;50.864;12.766;2023-05-20T09:24:01;98068.72;;;17.22;66.93
14242;BME280;7205;50.864;12.766;2023-05-20T09:26:28;98054.75;;;17.26;66.86
14242;BME280;7205;50.864;12.766;2023-05-20T09:28:55;98056.00;;;17.30;66.73
14242;BME280;7205;50.864;12.766;2023-05-20T09:31:25;98066.03;;;17.35;67.20
14242;BME280;7205;50.864;12.766;2023-05-20T09:33:53;98067.06;;;17.40;67.33
14242;BME280;7205;50.864;12.766;2023-05-20T09:36:22;98054.78;;;17.39;66.58
14242;BME280;7205;50.864;12.766;2023-05-20T09:38:52;98058.22;;;17.40;66.68
14242;BME280;7205;50.864;12.766;2023-05-20T09:41:22;98044.28;;;17.38;66.62
14242;BME280;7205;50.864;12.766;2023-05-20T09:43:51;98052.91;;;17.40;67.09
14242;BME280;7205;50.864;12.766;2023-05-20T09:46:19;98042.22;;;17.46;67.84
14242;BME280;7205;50.864;12.766;2023-05-20T09:48:46;98044.91;;;17.53;67.91
14242;BME280;7205;50.864;12.766;2023-05-20T09:51:14;98038.09;;;17.57;67.21
14242;BME280;7205;50.864;12.766;2023-05-20T09:53:43;98038.94;;;17.58;66.67
14242;BME280;7205;50.864;12.766;2023-05-20T09:56:10;98023.94;;;17.57;66.72
14242;BME280;7205;50.864;12.766;2023-05-20T09:58:37;98024.34;;;17.60;67.40
14242;BME280;7205;50.864;12.766;2023-05-20T10:01:05;98031.31;;;17.68;67.53
14242;BME280;7205;50.864;12.766;2023-05-20T10:03:32;98025.94;;;17.74;67.56
14242;BME280;7205;50.864;12.766;2023-05-20T10:06:10;98019.75;;;17.80;67.04
14242;BME280;7205;50.864;12.766;2023-05-20T10:09:10;98019.94;;;17.85;66.96
14242;BME280;7205;50.864;12.766;2023-05-20T10:11:45;98017.44;;;17.90;66.90
14242;BME280;7205;50.864;12.766;2023-05-20T10:14:27;98015.34;;;17.99;67.26
14242;BME280;7205;50.864;12.766;2023-05-20T10:17:06;98013.03;;;18.09;67.29
14242;BME280;7205;50.864;12.766;2023-05-20T10:19:36;98004.81;;;18.17;66.89
14242;BME280;7205;50.864;12.766;2023-05-20T10:22:04;98006.38;;;18.24;66.80
14242;BME280;7205;50.864;12.766;2023-05-20T10:24:35;98008.00;;;18.32;67.02
14242;BME280;7205;50.864;12.766;2023-05-20T10:27:03;98018.88;;;18.37;66.41
14242;BME280;7205;50.864;12.766;2023-05-20T10:29:41;98011.44;;;18.39;65.90
14242;BME280;7205;50.864;12.766;2023-05-20T10:32:08;98027.28;;;18.47;66.26
14242;BME280;7205;50.864;12.766;2023-05-20T10:34:44;98007.47;;;18.54;65.85
14242;BME280;7205;50.864;12.766;2023-05-20T10:37:21;98006.81;;;18.59;66.14
14242;BME280;7205;50.864;12.766;2023-05-20T10:39:50;98006.94;;;18.70;65.65
14242;BME280;7205;50.864;12.766;2023-05-20T10:42:27;97997.00;;;18.77;65.07
14242;BME280;7205;50.864;12.766;2023-05-20T10:44:54;97994.25;;;18.84;64.96
14242;BME280;7205;50.864;12.766;2023-05-20T10:47:21;98001.22;;;18.92;65.02
14242;BME280;7205;50.864;12.766;2023-05-20T10:49:48;97992.91;;;19.00;64.86
14242;BME280;7205;50.864;12.766;2023-05-20T10:52:16;97983.78;;;19.07;64.82
14242;BME280;7205;50.864;12.766;2023-05-20T10:54:43;97985.72;;;19.18;65.24
14242;BME280;7205;50.864;12.766;2023-05-20T10:57:12;97978.63;;;19.30;65.25
14242;BME280;7205;50.864;12.766;2023-05-20T10:59:40;97971.50;;;19.42;64.58
14242;BME280;7205;50.864;12.766;2023-05-20T11:02:08;97976.94;;;19.54;64.17
14242;BME280;7205;50.864;12.766;2023-05-20T11:04:37;97980.16;;;19.62;63.32
14242;BME280;7205;50.864;12.766;2023-05-20T11:07:04;97976.78;;;19.67;62.85
14242;BME280;7205;50.864;12.766;2023-05-20T11:09:31;97970.50;;;19.73;62.37
14242;BME280;7205;50.864;12.766;2023-05-20T11:11:58;97972.97;;;19.74;62.18
14242;BME280;7205;50.864;12.766;2023-05-20T11:14:28;97968.81;;;19.78;62.23
14242;BME280;7205;50.864;12.766;2023-05-20T11:16:56;97953.09;;;19.82;62.53
14242;BME280;7205;50.864;12.766;2023-05-20T11:19:23;97959.06;;;19.84;62.35
14242;BME280;7205;50.864;12.766;2023-05-20T11:21:51;97960.44;;;19.86;61.92
14242;BME280;7205;50.864;12.766;2023-05-20T11:24:23;97968.50;;;19.86;61.66
14242;BME280;7205;50.864;12.766;2023-05-20T11:26:52;97963.13;;;19.86;61.74
14242;BME280;7205;50.864;12.766;2023-05-20T11:29:19;97949.50;;;19.88;61.72
14242;BME280;7205;50.864;12.766;2023-05-20T11:31:48;97945.09;;;19.93;62.17
14242;BME280;7205;50.864;12.766;2023-05-20T11:34:19;97949.13;;;20.03;62.62
14242;BME280;7205;50.864;12.766;2023-05-20T11:36:46;97939.31;;;20.08;62.49
14242;BME280;7205;50.864;12.766;2023-05-20T11:39:23;97936.94;;;20.18;62.59
14242;BME280;7205;50.864;12.766;2023-05-20T11:41:57;97941.41;;;20.24;62.36
14242;BME280;7205;50.864;12.766;2023-05-20T11:44:25;97936.88;;;20.36;61.76
14242;BME280;7205;50.864;12.766;2023-05-20T11:46:58;97932.59;;;20.47;61.30
14242;BME280;7205;50.864;12.766;2023-05-20T11:49:26;97923.75;;;20.58;60.85
14242;BME280;7205;50.864;12.766;2023-05-20T11:51:52;97916.50;;;20.58;59.82
14242;BME280;7205;50.864;12.766;2023-05-20T11:54:21;97910.00;;;20.66;59.92
14242;BME280;7205;50.864;12.766;2023-05-20T11:56:48;97915.00;;;20.74;60.48
14242;BME280;7205;50.864;12.766;2023-05-20T11:59:15;97922.34;;;20.90;60.60
14242;BME280;7205;50.864;12.766;2023-05-20T12:01:42;97912.47;;;21.02;59.97
14242;BME280;7205;50.864;12.766;2023-05-20T12:04:11;97907.31;;;21.12;59.52
14242;BME280;7205;50.864;12.766;2023-05-20T12:06:39;97909.75;;;21.25;59.77
14242;BME280;7205;50.864;12.766;2023-05-20T12:09:07;97906.13;;;21.43;59.07
14242;BME280;7205;50.864;12.766;2023-05-20T12:11:35;97900.44;;;21.67;58.25
14242;BME280;7205;50.864;12.766;2023-05-20T12:14:02;97904.84;;;21.85;56.92
14242;BME280;7205;50.864;12.766;2023-05-20T12:16:29;97895.41;;;21.99;56.50
14242;BME280;7205;50.864;12.766;2023-05-20T12:18:56;97901.56;;;22.11;56.09
14242;BME280;7205;50.864;12.766;2023-05-20T12:21:25;97896.28;;;22.16;55.81
14242;BME280;7205;50.864;12.766;2023-05-20T12:37:23;97879.09;;;22.83;53.09
14242;BME280;7205;50.864;12.766;2023-05-20T12:40:06;97874.78;;;22.82;52.88
14242;BME280;7205;50.864;12.766;2023-05-20T12:42:54;97877.56;;;22.87;52.72
14242;BME280;7205;50.864;12.766;2023-05-20T12:45:21;97874.13;;;22.92;53.37
14242;BME280;7205;50.864;12.766;2023-05-20T12:47:48;97873.63;;;22.95;53.09
14242;BME280;7205;50.864;12.766;2023-05-20T12:50:14;97879.00;;;22.95;52.60
14242;BME280;7205;50.864;12.766;2023-05-20T12:52:43;97884.06;;;22.91;52.18
14242;BME280;7205;50.864;12.766;2023-05-20T12:55:10;97879.69;;;22.85;52.04
14242;BME280;7205;50.864;12.766;2023-05-20T12:57:38;97877.31;;;22.89;52.03
14242;BME280;7205;50.864;12.766;2023-05-20T13:00:08;97879.25;;;22.93;51.91
14242;BME280;7205;50.864;12.766;2023-05-20T13:02:36;97891.00;;;23.04;52.04
14242;BME280;7205;50.864;12.766;2023-05-20T13:05:55;97873.31;;;23.13;52.00
14242;BME280;7205;50.864;12.766;2023-05-20T13:16:24;97872.81;;;23.76;50.98
14242;BME280;7205;50.864;12.766;2023-05-20T13:40:48;97845.34;;;24.68;47.91
14242;BME280;7205;50.864;12.766;2023-05-20T13:43:15;97856.03;;;24.58;47.89
14242;BME280;7205;50.864;12.766;2023-05-20T13:45:42;97841.38;;;24.44;47.73
14242;BME280;7205;50.864;12.766;2023-05-20T13:48:09;97843.69;;;24.31;48.18
14242;BME280;7205;50.864;12.766;2023-05-20T13:50:36;97842.78;;;24.20;48.55
14242;BME280;7205;50.864;12.766;2023-05-20T13:53:03;97837.28;;;24.10;49.01
14242;BME280;7205;50.864;12.766;2023-05-20T13:55:30;97835.38;;;24.06;49.34
14242;BME280;7205;50.864;12.766;2023-05-20T13:57:58;97838.06;;;24.06;49.73
14242;BME280;7205;50.864;12.766;2023-05-20T14:00:25;97834.59;;;24.10;49.29